sensor_id;sensor_type;location;lat;lon;timestamp;temperature;humidity
59923;DHT22;45778;51.142;3.732;2022-09-13T00:00:42;20.40;99.90
59923;DHT22;45778;51.142;3.732;2022-09-13T00:03:09;20.40;99.90
59923;DHT22;45778;51.142;3.732;2022-09-13T00:05:37;20.40;99.90
59923;DHT22;45778;51.142;3.732;2022-09-13T00:08:03;20.50;99.90
59923;DHT22;45778;51.142;3.732;2022-09-13T00:10:30;20.50;99.90
59923;DHT22;45778;51.142;3.732;2022-09-13T00:12:57;20.50;99.90
59923;DHT22;45778;51.142;3.732;2022-09-13T00:15:23;20.40;99.90
59923;DHT22;45778;51.142;3.732;2022-09-13T00:17:48;20.50;99.90
59923;DHT22;45778;51.142;3.732;2022-09-13T00:20:14;20.50;99.90
59923;DHT22;45778;51.142;3.732;2022-09-13T00:22:39;20.50;99.90
59923;DHT22;45778;51.142;3.732;2022-09-13T00:25:06;20.40;99.90
59923;DHT22;45778;51.142;3.732;2022-09-13T00:27:33;20.40;99.90
59923;DHT22;45778;51.142;3.732;2022-09-13T00:29:59;20.30;99.90
59923;DHT22;45778;51.142;3.732;2022-09-13T00:32:25;20.40;99.90
59923;DHT22;45778;51.142;3.732;2022-09-13T00:34:51;20.40;99.90
59923;DHT22;45778;51.142;3.732;2022-09-13T00:37:16;20.10;99.90
59923;DHT22;45778;51.142;3.732;2022-09-13T00:39:42;20.10;99.90
59923;DHT22;45778;51.142;3.732;2022-09-13T00:42:12;20.10;99.90
59923;DHT22;45778;51.142;3.732;2022-09-13T00:45:01;20.10;99.90
59923;DHT22;45778;51.142;3.732;2022-09-13T00:47:40;20.10;99.90
59923;DHT22;45778;51.142;3.732;2022-09-13T00:50:15;20.10;99.90
59923;DHT22;45778;51.142;3.732;2022-09-13T00:52:44;20.10;99.90
59923;DHT22;45778;51.142;3.732;2022-09-13T00:55:18;20.10;99.90
59923;DHT22;45778;51.142;3.732;2022-09-13T00:57:45;20.10;99.90
59923;DHT22;45778;51.142;3.732;2022-09-13T01:00:16;20.00;99.90
59923;DHT22;45778;51.142;3.732;2022-09-13T01:02:48;20.00;99.90
59923;DHT22;45778;51.142;3.732;2022-09-13T01:05:16;20.00;99.90
59923;DHT22;45778;51.142;3.732;2022-09-13T01:07:43;20.00;99.90
59923;DHT22;45778;51.142;3.732;2022-09-13T01:10:09;19.80;99.90
59923;DHT22;45778;51.142;3.732;2022-09-13T01:13:15;19.80;99.90
59923;DHT22;45778;51.142;3.732;2022-09-13T01:15:43;19.90;99.90
59923;DHT22;45778;51.142;3.732;2022-09-13T01:18:10;19.80;99.90
59923;DHT22;45778;51.142;3.732;2022-09-13T01:29:01;19.60;99.90
59923;DHT22;45778;51.142;3.732;2022-09-13T01:31:50;19.60;99.90
59923;DHT22;45778;51.142;3.732;2022-09-13T01:37:24;19.30;99.90
59923;DHT22;45778;51.142;3.732;2022-09-13T01:40:16;19.20;99.90
59923;DHT22;45778;51.142;3.732;2022-09-13T01:45:45;19.30;99.90
59923;DHT22;45778;51.142;3.732;2022-09-13T01:48:48;19.40;99.90
59923;DHT22;45778;51.142;3.732;2022-09-13T01:51:10;19.40;99.90
59923;DHT22;45778;51.142;3.732;2022-09-13T01:53:51;19.40;99.90
59923;DHT22;45778;51.142;3.732;2022-09-13T01:56:28;19.50;99.90
59923;DHT22;45778;51.142;3.732;2022-09-13T01:59:03;19.50;99.90
59923;DHT22;45778;51.142;3.732;2022-09-13T02:01:33;19.50;99.90
59923;DHT22;45778;51.142;3.732;2022-09-13T02:04:12;19.40;99.90
59923;DHT22;45778;51.142;3.732;2022-09-13T02:06:47;19.40;99.90
59923;DHT22;45778;51.142;3.732;2022-09-13T02:09:21;19.40;99.90
59923;DHT22;45778;51.142;3.732;2022-09-13T02:11:52;19.40;99.90
59923;DHT22;45778;51.142;3.732;2022-09-13T02:14:27;19.40;99.90
59923;DHT22;45778;51.142;3.732;2022-09-13T02:17:00;19.40;99.90
59923;DHT22;45778;51.142;3.732;2022-09-13T02:20:02;19.50;99.90
59923;DHT22;45778;51.142;3.732;2022-09-13T02:22:33;19.40;99.90
59923;DHT22;45778;51.142;3.732;2022-09-13T02:25:13;19.40;99.90
59923;DHT22;45778;51.142;3.732;2022-09-13T02:27:43;19.20;99.90
59923;DHT22;45778;51.142;3.732;2022-09-13T02:30:11;19.10;99.90
59923;DHT22;45778;51.142;3.732;2022-09-13T02:35:33;18.90;99.90
59923;DHT22;45778;51.142;3.732;2022-09-13T02:38:08;19.00;99.90
59923;DHT22;45778;51.142;3.732;2022-09-13T02:40:41;18.90;99.90
59923;DHT22;45778;51.142;3.732;2022-09-13T02:43:20;18.90;99.90
59923;DHT22;45778;51.142;3.732;2022-09-13T02:46:21;19.00;99.90
59923;DHT22;45778;51.142;3.732;2022-09-13T02:54:33;18.90;99.90
59923;DHT22;45778;51.142;3.732;2022-09-13T02:59:38;18.90;99.90
59923;DHT22;45778;51.142;3.732;2022-09-13T03:02:09;19.00;99.90
59923;DHT22;45778;51.142;3.732;2022-09-13T03:04:37;19.00;99.90
59923;DHT22;45778;51.142;3.732;2022-09-13T03:07:02;19.10;99.90
59923;DHT22;45778;51.142;3.732;2022-09-13T03:09:32;19.10;99.90
59923;DHT22;45778;51.142;3.732;2022-09-13T03:14:56;19.20;99.90
59923;DHT22;45778;51.142;3.732;2022-09-13T03:26:44;19.10;99.90
59923;DHT22;45778;51.142;3.732;2022-09-13T03:29:26;19.10;99.90
59923;DHT22;45778;51.142;3.732;2022-09-13T03:34:47;19.20;99.90
59923;DHT22;45778;51.142;3.732;2022-09-13T03:37:33;19.10;99.90
59923;DHT22;45778;51.142;3.732;2022-09-13T03:43:12;19.10;99.90
59923;DHT22;45778;51.142;3.732;2022-09-13T03:45:46;19.10;99.90
59923;DHT22;45778;51.142;3.732;2022-09-13T03:48:13;19.10;99.90
59923;DHT22;45778;51.142;3.732;2022-09-13T03:50:40;19.10;99.90
59923;DHT22;45778;51.142;3.732;2022-09-13T03:53:09;19.00;99.90
59923;DHT22;45778;51.142;3.732;2022-09-13T03:55:39;19.00;99.90
59923;DHT22;45778;51.142;3.732;2022-09-13T03:58:08;19.10;99.90
59923;DHT22;45778;51.142;3.732;2022-09-13T04:00:34;19.10;99.90
59923;DHT22;45778;51.142;3.732;2022-09-13T04:02:59;19.10;99.90
59923;DHT22;45778;51.142;3.732;2022-09-13T04:05:25;19.10;99.90
59923;DHT22;45778;51.142;3.732;2022-09-13T04:07:51;19.10;99.90
59923;DHT22;45778;51.142;3.732;2022-09-13T04:10:16;19.10;99.90
59923;DHT22;45778;51.142;3.732;2022-09-13T04:12:42;19.20;99.90
59923;DHT22;45778;51.142;3.732;2022-09-13T04:15:08;19.20;99.90
59923;DHT22;45778;51.142;3.732;2022-09-13T04:17:34;19.20;99.90
59923;DHT22;45778;51.142;3.732;2022-09-13T04:20:00;19.20;99.90
59923;DHT22;45778;51.142;3.732;2022-09-13T04:22:26;19.30;99.90
59923;DHT22;45778;51.142;3.732;2022-09-13T04:24:52;19.20;99.90
59923;DHT22;45778;51.142;3.732;2022-09-13T04:27:17;19.30;99.90
59923;DHT22;45778;51.142;3.732;2022-09-13T04:29:43;19.20;99.90
59923;DHT22;45778;51.142;3.732;2022-09-13T04:32:09;18.90;99.90
59923;DHT22;45778;51.142;3.732;2022-09-13T04:34:35;18.80;99.90
59923;DHT22;45778;51.142;3.732;2022-09-13T04:37:01;18.80;99.90
59923;DHT22;45778;51.142;3.732;2022-09-13T04:39:27;18.70;99.90
59923;DHT22;45778;51.142;3.732;2022-09-13T04:41:52;18.70;99.90
59923;DHT22;45778;51.142;3.732;2022-09-13T04:44:19;18.80;99.90
59923;DHT22;45778;51.142;3.732;2022-09-13T04:46:47;18.90;99.90
59923;DHT22;45778;51.142;3.732;2022-09-13T04:49:14;18.90;99.90
59923;DHT22;45778;51.142;3.732;2022-09-13T04:51:40;18.90;99.90
59923;DHT22;45778;51.142;3.732;2022-09-13T04:54:07;19.00;99.90
59923;DHT22;45778;51.142;3.732;2022-09-13T04:56:34;19.00;99.90
59923;DHT22;45778;51.142;3.732;2022-09-13T04:59:00;18.90;99.90
59923;DHT22;45778;51.142;3.732;2022-09-13T05:01:26;18.80;99.90
59923;DHT22;45778;51.142;3.732;2022-09-13T05:03:52;18.70;99.90
59923;DHT22;45778;51.142;3.732;2022-09-13T05:06:19;18.70;99.90
59923;DHT22;45778;51.142;3.732;2022-09-13T05:08:55;18.80;99.90
59923;DHT22;45778;51.142;3.732;2022-09-13T05:11:22;18.90;99.90
59923;DHT22;45778;51.142;3.732;2022-09-13T05:13:49;19.00;99.90
59923;DHT22;45778;51.142;3.732;2022-09-13T05:16:20;19.00;99.90
59923;DHT22;45778;51.142;3.732;2022-09-13T05:18:45;19.00;99.90
59923;DHT22;45778;51.142;3.732;2022-09-13T05:21:11;19.00;99.90
59923;DHT22;45778;51.142;3.732;2022-09-13T05:23:37;19.10;99.90
59923;DHT22;45778;51.142;3.732;2022-09-13T05:26:04;19.10;99.90
59923;DHT22;45778;51.142;3.732;2022-09-13T05:28:32;19.10;99.90
59923;DHT22;45778;51.142;3.732;2022-09-13T05:30:59;19.10;99.90
59923;DHT22;45778;51.142;3.732;2022-09-13T05:33:30;19.10;99.90
59923;DHT22;45778;51.142;3.732;2022-09-13T05:35:56;19.20;99.90
59923;DHT22;45778;51.142;3.732;2022-09-13T05:38:21;19.10;99.90
59923;DHT22;45778;51.142;3.732;2022-09-13T05:40:52;19.00;99.90
59923;DHT22;45778;51.142;3.732;2022-09-13T05:43:18;18.90;99.90
59923;DHT22;45778;51.142;3.732;2022-09-13T05:45:44;18.90;99.90
59923;DHT22;45778;51.142;3.732;2022-09-13T05:48:09;19.00;99.90
59923;DHT22;45778;51.142;3.732;2022-09-13T05:50:38;19.10;99.90
59923;DHT22;45778;51.142;3.732;2022-09-13T05:53:04;19.20;99.90
59923;DHT22;45778;51.142;3.732;2022-09-13T05:55:30;19.30;99.90
59923;DHT22;45778;51.142;3.732;2022-09-13T05:57:56;19.20;99.90
59923;DHT22;45778;51.142;3.732;2022-09-13T06:00:22;19.10;99.90
59923;DHT22;45778;51.142;3.732;2022-09-13T06:02:48;19.10;99.90
59923;DHT22;45778;51.142;3.732;2022-09-13T06:05:14;19.00;99.90
59923;DHT22;45778;51.142;3.732;2022-09-13T06:07:40;19.10;99.90
59923;DHT22;45778;51.142;3.732;2022-09-13T06:10:07;19.20;99.90
59923;DHT22;45778;51.142;3.732;2022-09-13T06:12:33;19.30;99.90
59923;DHT22;45778;51.142;3.732;2022-09-13T06:14:59;19.30;99.90
59923;DHT22;45778;51.142;3.732;2022-09-13T06:17:25;19.30;99.90
59923;DHT22;45778;51.142;3.732;2022-09-13T06:19:50;19.40;99.90
59923;DHT22;45778;51.142;3.732;2022-09-13T06:22:16;19.40;99.90
59923;DHT22;45778;51.142;3.732;2022-09-13T06:24:42;19.40;99.90
59923;DHT22;45778;51.142;3.732;2022-09-13T06:27:07;19.40;99.90
59923;DHT22;45778;51.142;3.732;2022-09-13T06:29:35;19.40;99.90
59923;DHT22;45778;51.142;3.732;2022-09-13T06:32:02;19.30;99.90
59923;DHT22;45778;51.142;3.732;2022-09-13T06:34:28;19.40;99.90
59923;DHT22;45778;51.142;3.732;2022-09-13T06:36:53;19.40;99.90
59923;DHT22;45778;51.142;3.732;2022-09-13T06:39:19;19.60;99.90
59923;DHT22;45778;51.142;3.732;2022-09-13T06:41:45;19.60;99.90
59923;DHT22;45778;51.142;3.732;2022-09-13T06:44:10;19.80;99.90
59923;DHT22;45778;51.142;3.732;2022-09-13T06:46:36;20.00;99.90
59923;DHT22;45778;51.142;3.732;2022-09-13T06:49:04;20.10;99.90
59923;DHT22;45778;51.142;3.732;2022-09-13T06:51:31;20.20;99.90
59923;DHT22;45778;51.142;3.732;2022-09-13T06:53:57;20.40;99.90
59923;DHT22;45778;51.142;3.732;2022-09-13T06:56:31;20.60;99.90
59923;DHT22;45778;51.142;3.732;2022-09-13T06:59:00;20.70;99.90
59923;DHT22;45778;51.142;3.732;2022-09-13T07:01:29;20.90;99.90
59923;DHT22;45778;51.142;3.732;2022-09-13T07:04:01;21.00;99.90
59923;DHT22;45778;51.142;3.732;2022-09-13T07:06:29;21.10;99.90
59923;DHT22;45778;51.142;3.732;2022-09-13T07:08:57;21.20;99.90
59923;DHT22;45778;51.142;3.732;2022-09-13T07:11:25;21.30;99.90
59923;DHT22;45778;51.142;3.732;2022-09-13T07:13:53;21.30;99.90
59923;DHT22;45778;51.142;3.732;2022-09-13T07:16:20;21.40;99.90
59923;DHT22;45778;51.142;3.732;2022-09-13T07:18:59;21.50;99.90
59923;DHT22;45778;51.142;3.732;2022-09-13T07:21:26;21.60;99.90
59923;DHT22;45778;51.142;3.732;2022-09-13T07:23:52;21.70;99.90
59923;DHT22;45778;51.142;3.732;2022-09-13T07:26:19;21.80;99.90
59923;DHT22;45778;51.142;3.732;2022-09-13T07:28:46;21.80;99.90
59923;DHT22;45778;51.142;3.732;2022-09-13T07:31:17;21.90;99.90
59923;DHT22;45778;51.142;3.732;2022-09-13T07:33:45;22.00;99.90
59923;DHT22;45778;51.142;3.732;2022-09-13T07:36:12;22.00;99.90
59923;DHT22;45778;51.142;3.732;2022-09-13T07:38:40;22.10;99.90
59923;DHT22;45778;51.142;3.732;2022-09-13T07:41:07;22.20;99.90
59923;DHT22;45778;51.142;3.732;2022-09-13T07:43:35;22.20;99.90
59923;DHT22;45778;51.142;3.732;2022-09-13T07:46:05;22.10;99.90
59923;DHT22;45778;51.142;3.732;2022-09-13T07:48:33;22.40;99.90
59923;DHT22;45778;51.142;3.732;2022-09-13T07:51:02;22.70;99.90
59923;DHT22;45778;51.142;3.732;2022-09-13T07:53:28;22.90;99.90
59923;DHT22;45778;51.142;3.732;2022-09-13T07:56:03;22.90;99.90
59923;DHT22;45778;51.142;3.732;2022-09-13T07:58:29;23.10;99.90
59923;DHT22;45778;51.142;3.732;2022-09-13T08:03:35;23.60;99.90
59923;DHT22;45778;51.142;3.732;2022-09-13T08:06:02;23.80;99.90
59923;DHT22;45778;51.142;3.732;2022-09-13T08:08:29;23.90;99.90
59923;DHT22;45778;51.142;3.732;2022-09-13T08:10:54;24.00;99.90
59923;DHT22;45778;51.142;3.732;2022-09-13T08:13:20;23.90;99.90
59923;DHT22;45778;51.142;3.732;2022-09-13T08:15:46;24.00;99.90
59923;DHT22;45778;51.142;3.732;2022-09-13T08:18:11;24.20;99.90
59923;DHT22;45778;51.142;3.732;2022-09-13T08:20:38;24.40;99.90
59923;DHT22;45778;51.142;3.732;2022-09-13T08:23:05;24.30;99.90
59923;DHT22;45778;51.142;3.732;2022-09-13T08:25:32;24.60;99.90
59923;DHT22;45778;51.142;3.732;2022-09-13T08:28:09;24.80;99.90
59923;DHT22;45778;51.142;3.732;2022-09-13T08:30:37;24.90;99.90
59923;DHT22;45778;51.142;3.732;2022-09-13T08:33:04;25.10;99.90
59923;DHT22;45778;51.142;3.732;2022-09-13T08:35:30;24.60;99.90
59923;DHT22;45778;51.142;3.732;2022-09-13T08:37:56;24.80;99.90
59923;DHT22;45778;51.142;3.732;2022-09-13T08:40:26;24.70;99.90
59923;DHT22;45778;51.142;3.732;2022-09-13T08:45:51;24.60;99.90
59923;DHT22;45778;51.142;3.732;2022-09-13T08:48:24;24.20;99.90
59923;DHT22;45778;51.142;3.732;2022-09-13T08:50:53;24.40;99.90
59923;DHT22;45778;51.142;3.732;2022-09-13T08:53:29;24.20;99.90
59923;DHT22;45778;51.142;3.732;2022-09-13T09:01:11;24.10;99.90
59923;DHT22;45778;51.142;3.732;2022-09-13T09:03:50;24.40;99.90
59923;DHT22;45778;51.142;3.732;2022-09-13T09:06:18;24.70;99.90
59923;DHT22;45778;51.142;3.732;2022-09-13T09:08:52;25.00;99.90
59923;DHT22;45778;51.142;3.732;2022-09-13T09:11:26;25.20;99.90
59923;DHT22;45778;51.142;3.732;2022-09-13T09:16:46;25.90;99.90
59923;DHT22;45778;51.142;3.732;2022-09-13T09:21:50;26.10;99.90
59923;DHT22;45778;51.142;3.732;2022-09-13T09:24:24;26.20;99.90
59923;DHT22;45778;51.142;3.732;2022-09-13T09:26:52;26.40;99.90
59923;DHT22;45778;51.142;3.732;2022-09-13T09:29:24;25.60;99.90
59923;DHT22;45778;51.142;3.732;2022-09-13T09:37:21;25.90;99.90
59923;DHT22;45778;51.142;3.732;2022-09-13T09:39:52;26.20;99.90
59923;DHT22;45778;51.142;3.732;2022-09-13T09:42:26;26.30;99.90
59923;DHT22;45778;51.142;3.732;2022-09-13T09:44:59;26.00;99.90
59923;DHT22;45778;51.142;3.732;2022-09-13T09:47:27;25.70;99.90
59923;DHT22;45778;51.142;3.732;2022-09-13T09:49:54;25.70;99.90
59923;DHT22;45778;51.142;3.732;2022-09-13T09:55:14;26.50;99.90
59923;DHT22;45778;51.142;3.732;2022-09-13T09:57:59;26.90;99.90
59923;DHT22;45778;51.142;3.732;2022-09-13T10:00:30;27.10;99.90
59923;DHT22;45778;51.142;3.732;2022-09-13T10:03:06;27.00;99.90
59923;DHT22;45778;51.142;3.732;2022-09-13T10:05:34;27.00;99.90
59923;DHT22;45778;51.142;3.732;2022-09-13T10:08:03;26.60;99.90
59923;DHT22;45778;51.142;3.732;2022-09-13T10:13:02;27.00;99.90
59923;DHT22;45778;51.142;3.732;2022-09-13T10:15:30;26.90;99.90
59923;DHT22;45778;51.142;3.732;2022-09-13T10:18:05;27.10;99.90
59923;DHT22;45778;51.142;3.732;2022-09-13T10:20:32;27.60;99.90
59923;DHT22;45778;51.142;3.732;2022-09-13T10:23:14;27.70;99.90
59923;DHT22;45778;51.142;3.732;2022-09-13T10:25:56;28.00;99.90
59923;DHT22;45778;51.142;3.732;2022-09-13T10:28:24;27.30;99.90
59923;DHT22;45778;51.142;3.732;2022-09-13T10:30:58;27.60;99.90
59923;DHT22;45778;51.142;3.732;2022-09-13T10:33:31;27.90;99.90
59923;DHT22;45778;51.142;3.732;2022-09-13T10:36:00;27.90;99.90
59923;DHT22;45778;51.142;3.732;2022-09-13T10:38:39;27.90;99.90
59923;DHT22;45778;51.142;3.732;2022-09-13T10:41:08;27.90;99.90
59923;DHT22;45778;51.142;3.732;2022-09-13T10:43:34;27.50;99.90
59923;DHT22;45778;51.142;3.732;2022-09-13T10:46:03;27.20;99.90
59923;DHT22;45778;51.142;3.732;2022-09-13T10:48:40;27.10;99.90
59923;DHT22;45778;51.142;3.732;2022-09-13T10:51:27;26.90;99.90
59923;DHT22;45778;51.142;3.732;2022-09-13T10:54:14;26.90;99.90
59923;DHT22;45778;51.142;3.732;2022-09-13T10:56:42;26.90;99.90
59923;DHT22;45778;51.142;3.732;2022-09-13T10:59:27;27.10;99.90
59923;DHT22;45778;51.142;3.732;2022-09-13T11:02:24;27.20;99.90
59923;DHT22;45778;51.142;3.732;2022-09-13T11:06:02;27.10;99.90
59923;DHT22;45778;51.142;3.732;2022-09-13T11:13:23;28.00;99.90
59923;DHT22;45778;51.142;3.732;2022-09-13T11:24:23;29.30;98.50
59923;DHT22;45778;51.142;3.732;2022-09-13T11:30:15;29.20;98.30
59923;DHT22;45778;51.142;3.732;2022-09-13T11:35:48;29.30;97.60
59923;DHT22;45778;51.142;3.732;2022-09-13T11:41:31;27.70;98.90
59923;DHT22;45778;51.142;3.732;2022-09-13T11:44:46;27.00;99.90
59923;DHT22;45778;51.142;3.732;2022-09-13T11:50:00;28.30;99.40
59923;DHT22;45778;51.142;3.732;2022-09-13T11:52:54;28.70;98.70
59923;DHT22;45778;51.142;3.732;2022-09-13T11:55:30;28.60;98.90
59923;DHT22;45778;51.142;3.732;2022-09-13T11:58:00;28.90;97.40
59923;DHT22;45778;51.142;3.732;2022-09-13T12:00:33;28.30;98.40
59923;DHT22;45778;51.142;3.732;2022-09-13T12:05:46;28.10;98.90
59923;DHT22;45778;51.142;3.732;2022-09-13T12:08:35;27.70;99.00
59923;DHT22;45778;51.142;3.732;2022-09-13T12:13:48;27.30;99.90
59923;DHT22;45778;51.142;3.732;2022-09-13T12:16:41;27.30;99.90
59923;DHT22;45778;51.142;3.732;2022-09-13T12:19:21;27.30;99.90
59923;DHT22;45778;51.142;3.732;2022-09-13T12:21:51;27.20;99.90
59923;DHT22;45778;51.142;3.732;2022-09-13T12:24:22;27.00;99.50
59923;DHT22;45778;51.142;3.732;2022-09-13T12:27:22;26.80;99.90
59923;DHT22;45778;51.142;3.732;2022-09-13T12:29:53;26.40;99.90
59923;DHT22;45778;51.142;3.732;2022-09-13T12:32:20;26.20;99.90
59923;DHT22;45778;51.142;3.732;2022-09-13T12:35:02;26.20;99.90
59923;DHT22;45778;51.142;3.732;2022-09-13T12:37:43;26.10;99.90
59923;DHT22;45778;51.142;3.732;2022-09-13T12:40:24;25.90;99.90
59923;DHT22;45778;51.142;3.732;2022-09-13T12:59:49;25.90;99.90
59923;DHT22;45778;51.142;3.732;2022-09-13T13:04:53;25.90;99.90
59923;DHT22;45778;51.142;3.732;2022-09-13T13:07:22;26.00;99.90
59923;DHT22;45778;51.142;3.732;2022-09-13T13:09:51;26.10;99.90
59923;DHT22;45778;51.142;3.732;2022-09-13T13:12:28;26.10;99.90
59923;DHT22;45778;51.142;3.732;2022-09-13T13:14:54;26.30;99.90
59923;DHT22;45778;51.142;3.732;2022-09-13T13:17:46;26.40;99.90
59923;DHT22;45778;51.142;3.732;2022-09-13T13:29:02;25.50;99.90
59923;DHT22;45778;51.142;3.732;2022-09-13T13:39:11;24.50;99.90
59923;DHT22;45778;51.142;3.732;2022-09-13T13:41:43;24.10;99.90
59923;DHT22;45778;51.142;3.732;2022-09-13T13:46:47;24.00;99.90
59923;DHT22;45778;51.142;3.732;2022-09-13T14:19:43;23.90;99.90
59923;DHT22;45778;51.142;3.732;2022-09-13T14:22:14;23.90;99.90
59923;DHT22;45778;51.142;3.732;2022-09-13T14:24:46;23.60;99.90
59923;DHT22;45778;51.142;3.732;2022-09-13T14:27:20;23.60;99.90
59923;DHT22;45778;51.142;3.732;2022-09-13T14:29:47;23.70;99.90
59923;DHT22;45778;51.142;3.732;2022-09-13T14:32:16;23.80;99.90
59923;DHT22;45778;51.142;3.732;2022-09-13T14:34:59;24.00;99.90
59923;DHT22;45778;51.142;3.732;2022-09-13T14:37:34;24.10;99.90
59923;DHT22;45778;51.142;3.732;2022-09-13T14:42:40;24.10;99.90
59923;DHT22;45778;51.142;3.732;2022-09-13T14:45:14;24.10;99.90
59923;DHT22;45778;51.142;3.732;2022-09-13T14:50:29;24.00;99.90
59923;DHT22;45778;51.142;3.732;2022-09-13T14:52:56;24.10;99.90
59923;DHT22;45778;51.142;3.732;2022-09-13T14:55:39;24.10;99.90
59923;DHT22;45778;51.142;3.732;2022-09-13T14:58:16;24.00;99.90
59923;DHT22;45778;51.142;3.732;2022-09-13T15:01:05;23.90;99.90
59923;DHT22;45778;51.142;3.732;2022-09-13T15:03:33;23.60;99.90
59923;DHT22;45778;51.142;3.732;2022-09-13T15:06:01;23.70;99.90
59923;DHT22;45778;51.142;3.732;2022-09-13T15:08:40;23.90;99.90
59923;DHT22;45778;51.142;3.732;2022-09-13T15:11:16;24.00;99.90
59923;DHT22;45778;51.142;3.732;2022-09-13T15:14:20;23.90;99.90
59923;DHT22;45778;51.142;3.732;2022-09-13T15:19:27;23.50;99.90
59923;DHT22;45778;51.142;3.732;2022-09-13T15:22:02;23.60;99.90
59923;DHT22;45778;51.142;3.732;2022-09-13T15:24:31;23.00;99.90
59923;DHT22;45778;51.142;3.732;2022-09-13T15:27:03;23.20;99.90
59923;DHT22;45778;51.142;3.732;2022-09-13T15:29:29;23.30;99.90
59923;DHT22;45778;51.142;3.732;2022-09-13T15:32:02;23.00;99.90
59923;DHT22;45778;51.142;3.732;2022-09-13T15:34:28;23.10;99.90
59923;DHT22;45778;51.142;3.732;2022-09-13T15:37:01;23.20;99.90
59923;DHT22;45778;51.142;3.732;2022-09-13T15:39:27;23.30;99.90
59923;DHT22;45778;51.142;3.732;2022-09-13T15:41:57;22.80;99.90
59923;DHT22;45778;51.142;3.732;2022-09-13T15:44:26;22.50;99.90
59923;DHT22;45778;51.142;3.732;2022-09-13T15:46:54;22.40;99.90
59923;DHT22;45778;51.142;3.732;2022-09-13T15:49:25;22.30;99.90
59923;DHT22;45778;51.142;3.732;2022-09-13T15:51:57;22.10;99.90
59923;DHT22;45778;51.142;3.732;2022-09-13T15:56:57;22.20;99.90
59923;DHT22;45778;51.142;3.732;2022-09-13T15:59:24;21.90;99.90
59923;DHT22;45778;51.142;3.732;2022-09-13T16:01:50;21.80;99.90
59923;DHT22;45778;51.142;3.732;2022-09-13T16:04:17;21.70;99.90
59923;DHT22;45778;51.142;3.732;2022-09-13T16:06:44;21.60;99.90
59923;DHT22;45778;51.142;3.732;2022-09-13T16:09:20;21.70;99.90
59923;DHT22;45778;51.142;3.732;2022-09-13T16:11:47;21.80;99.90
59923;DHT22;45778;51.142;3.732;2022-09-13T16:14:13;21.70;99.90
59923;DHT22;45778;51.142;3.732;2022-09-13T16:16:39;21.70;99.90
59923;DHT22;45778;51.142;3.732;2022-09-13T16:19:05;21.70;99.90
59923;DHT22;45778;51.142;3.732;2022-09-13T16:21:31;21.80;99.90
59923;DHT22;45778;51.142;3.732;2022-09-13T16:23:56;21.60;99.90
59923;DHT22;45778;51.142;3.732;2022-09-13T16:26:22;21.60;99.90
59923;DHT22;45778;51.142;3.732;2022-09-13T16:28:48;21.50;99.90
59923;DHT22;45778;51.142;3.732;2022-09-13T16:31:14;21.60;99.90
59923;DHT22;45778;51.142;3.732;2022-09-13T16:33:41;21.50;99.90
59923;DHT22;45778;51.142;3.732;2022-09-13T16:36:10;21.50;99.90
59923;DHT22;45778;51.142;3.732;2022-09-13T16:38:36;21.40;99.90
59923;DHT22;45778;51.142;3.732;2022-09-13T16:41:05;21.40;99.90
59923;DHT22;45778;51.142;3.732;2022-09-13T16:43:31;21.40;99.90
59923;DHT22;45778;51.142;3.732;2022-09-13T16:45:58;21.40;99.90
59923;DHT22;45778;51.142;3.732;2022-09-13T16:48:24;21.30;99.90
59923;DHT22;45778;51.142;3.732;2022-09-13T16:50:49;21.20;99.90
59923;DHT22;45778;51.142;3.732;2022-09-13T16:53:15;21.30;99.90
59923;DHT22;45778;51.142;3.732;2022-09-13T16:55:41;21.20;99.90
59923;DHT22;45778;51.142;3.732;2022-09-13T16:58:07;21.10;99.90
59923;DHT22;45778;51.142;3.732;2022-09-13T17:00:33;21.10;99.90
59923;DHT22;45778;51.142;3.732;2022-09-13T17:02:58;21.10;99.90
59923;DHT22;45778;51.142;3.732;2022-09-13T17:05:24;20.90;99.90
59923;DHT22;45778;51.142;3.732;2022-09-13T17:07:51;20.90;99.90
59923;DHT22;45778;51.142;3.732;2022-09-13T17:10:17;21.00;99.90
59923;DHT22;45778;51.142;3.732;2022-09-13T17:12:43;20.90;99.90
59923;DHT22;45778;51.142;3.732;2022-09-13T17:15:09;20.80;99.90
59923;DHT22;45778;51.142;3.732;2022-09-13T17:17:35;20.80;99.90
59923;DHT22;45778;51.142;3.732;2022-09-13T17:20:04;20.80;99.90
59923;DHT22;45778;51.142;3.732;2022-09-13T17:22:32;20.80;99.90
59923;DHT22;45778;51.142;3.732;2022-09-13T17:24:58;20.80;99.90
59923;DHT22;45778;51.142;3.732;2022-09-13T17:27:25;20.70;99.90
59923;DHT22;45778;51.142;3.732;2022-09-13T17:29:51;20.70;99.90
59923;DHT22;45778;51.142;3.732;2022-09-13T17:32:18;20.60;99.90
59923;DHT22;45778;51.142;3.732;2022-09-13T17:34:44;20.50;99.90
59923;DHT22;45778;51.142;3.732;2022-09-13T17:37:10;20.50;99.90
59923;DHT22;45778;51.142;3.732;2022-09-13T17:39:35;20.40;99.90
59923;DHT22;45778;51.142;3.732;2022-09-13T17:42:01;20.50;99.90
59923;DHT22;45778;51.142;3.732;2022-09-13T17:44:27;20.40;99.90
59923;DHT22;45778;51.142;3.732;2022-09-13T17:46:52;20.40;99.90
59923;DHT22;45778;51.142;3.732;2022-09-13T17:49:18;20.40;99.90
59923;DHT22;45778;51.142;3.732;2022-09-13T17:51:44;20.50;99.90
59923;DHT22;45778;51.142;3.732;2022-09-13T17:54:11;20.50;99.90
59923;DHT22;45778;51.142;3.732;2022-09-13T17:56:42;20.50;99.90
59923;DHT22;45778;51.142;3.732;2022-09-13T17:59:16;20.30;99.90
59923;DHT22;45778;51.142;3.732;2022-09-13T18:01:48;20.30;99.90
59923;DHT22;45778;51.142;3.732;2022-09-13T18:04:16;20.20;99.90
59923;DHT22;45778;51.142;3.732;2022-09-13T18:06:42;20.20;99.90
59923;DHT22;45778;51.142;3.732;2022-09-13T18:09:10;20.00;99.90
59923;DHT22;45778;51.142;3.732;2022-09-13T18:11:36;20.00;99.90
59923;DHT22;45778;51.142;3.732;2022-09-13T18:14:03;19.90;99.90
59923;DHT22;45778;51.142;3.732;2022-09-13T18:16:29;19.90;99.90
59923;DHT22;45778;51.142;3.732;2022-09-13T18:18:55;20.10;99.90
59923;DHT22;45778;51.142;3.732;2022-09-13T18:21:23;20.00;99.90
59923;DHT22;45778;51.142;3.732;2022-09-13T18:23:51;19.80;99.90
59923;DHT22;45778;51.142;3.732;2022-09-13T18:26:19;19.40;99.90
59923;DHT22;45778;51.142;3.732;2022-09-13T18:28:46;19.50;99.90
59923;DHT22;45778;51.142;3.732;2022-09-13T18:31:14;19.60;99.90
59923;DHT22;45778;51.142;3.732;2022-09-13T18:33:41;19.80;99.90
59923;DHT22;45778;51.142;3.732;2022-09-13T18:36:08;19.60;99.90
59923;DHT22;45778;51.142;3.732;2022-09-13T18:38:40;19.50;99.90
59923;DHT22;45778;51.142;3.732;2022-09-13T18:43:36;19.70;99.90
59923;DHT22;45778;51.142;3.732;2022-09-13T18:46:04;19.90;99.90
59923;DHT22;45778;51.142;3.732;2022-09-13T18:48:31;19.80;99.90
59923;DHT22;45778;51.142;3.732;2022-09-13T18:50:58;19.90;99.90
59923;DHT22;45778;51.142;3.732;2022-09-13T18:53:24;19.90;99.90